Ferndale, CA

1:06 AM PST on February 07, 2016 (GMT -0800)
Vanston feilds | | Change Station
CLOSE
Current Station
Personal Weather Station
Location: Ferndale, CA
Elevation: 49 ft
Nearby Weather Stations

Elev 49 ft 40.58 °N, 124.26 °W | Updated 1 minute ago

Clear
Clear
45.5 °F
Feels Like 46 °F
N
0.0
Wind Variable Wind from East

Today
High -- | Low -- °F
--% Chance of Precip.
Yesterday
High -- | Low -- °F
Precip. -- in
Pressure 30.40 in
Visibility 10.0 miles
Clouds Clear
Windchill 46 °F
Dew Point 45 °F
Humidity 99%
Rainfall 0.00 in
Snow Depth Not available.
7:20 AM 5:42 PM
Waning Crescent, 2% visible
METAR KFOT 070855Z AUTO 15005KT 10SM CLR 09/09 A3040 RMK AO1
Pressure 30.40 in
Visibility 10.0 miles
Clouds Clear
Windchill 46 °F
Dew Point 45 °F
Humidity 99%
Rainfall 0.00 in
Snow Depth Not available.
7:20 AM 5:42 PM
Waning Crescent, 2% visible
METAR KFOT 070855Z AUTO 15005KT 10SM CLR 09/09 A3040 RMK AO1

10-Day Weather Forecast

Almanac

Astronomy

Feb. 07, 2016 Rise Set
Actual Time
Civil Twilight
Nautical Twilight
Astronomical Twilight
Moon
Length of Visible Light
Length of Day
Tomorrow will be .
, % of the Moon is Illuminated

Today's Extremes

State Highs State Lows

Community

WunderPhotos

Upload Photos

1,891,171 photos uploaded!

WunderBlog® & News

Nearby

Air Quality

  Air Quality AQ Index Pollutant
Not available.

Snow Depth

Station Depth Elevation

Earthquake Activity

City Distance Mag. Time & Date
Minimum magnitude displayed is 2.5.

Coastal Water Temperatures

Place Temperature

Stations

Nearby Weather Stations

Station Location Temp. Windchill Dew Point Humidity Wind Precip. Elev Updated Type
                   

Watches & Warnings

There are currently no watches in effect.